createdAt,value
2019-03-05T00:01:26.300Z,6.41
2019-03-05T00:03:53.696Z,6.44
2019-03-05T00:06:21.217Z,6.41
2019-03-05T00:08:48.030Z,6.42
2019-03-05T00:11:15.024Z,6.46
2019-03-05T00:13:42.562Z,6.38
2019-03-05T00:16:10.293Z,6.44
2019-03-05T00:18:37.305Z,6.45
2019-03-05T00:21:04.610Z,6.45
2019-03-05T00:23:48.717Z,6.48
2019-03-05T00:26:18.622Z,6.43
2019-03-05T00:29:26.667Z,6.51
2019-03-05T00:31:54.606Z,6.52
2019-03-05T00:35:02.426Z,6.54
2019-03-05T00:38:01.942Z,6.84
2019-03-05T00:41:05.719Z,6.42
2019-03-05T00:43:45.573Z,6.78
2019-03-05T00:46:19.162Z,6.64
2019-03-05T00:49:40.523Z,6.72
2019-03-05T00:52:41.221Z,6.70
2019-03-05T00:55:37.238Z,6.71
2019-03-05T00:58:18.133Z,6.78
2019-03-05T01:01:13.910Z,6.72
2019-03-05T01:03:54.799Z,6.78
2019-03-05T01:06:22.897Z,6.70
2019-03-05T01:08:49.971Z,6.71
2019-03-05T01:11:17.709Z,6.73
2019-03-05T01:13:44.426Z,6.72
2019-03-05T01:16:13.628Z,6.76
2019-03-05T01:18:40.421Z,6.75
2019-03-05T01:21:07.123Z,6.79
2019-03-05T01:23:34.224Z,6.78
2019-03-05T01:26:00.997Z,6.73
2019-03-05T01:28:27.796Z,6.77
2019-03-05T01:31:17.281Z,6.73
2019-03-05T01:33:51.534Z,6.78
2019-03-05T01:36:21.061Z,6.80
2019-03-05T01:39:10.238Z,6.79
2019-03-05T01:41:37.407Z,6.80
2019-03-05T01:44:04.195Z,6.83
2019-03-05T01:46:30.886Z,6.79
2019-03-05T01:48:57.632Z,6.80
2019-03-05T01:51:24.461Z,6.80
2019-03-05T01:53:51.174Z,6.80
2019-03-05T01:56:18.114Z,6.80
2019-03-05T01:58:44.777Z,6.77
2019-03-05T02:01:11.580Z,6.78
2019-03-05T02:03:38.236Z,6.79
2019-03-05T02:06:05.094Z,6.81
2019-03-05T02:08:32.052Z,6.81
2019-03-05T02:10:58.841Z,6.75
2019-03-05T02:13:25.724Z,6.68
2019-03-05T02:15:52.511Z,6.54
2019-03-05T02:18:21.561Z,6.41
2019-03-05T02:20:49.465Z,6.26
2019-03-05T02:23:20.860Z,6.17
2019-03-05T02:26:01.609Z,6.07
2019-03-05T02:29:11.969Z,5.97
2019-03-05T02:32:16.927Z,5.95
2019-03-05T02:35:30.573Z,5.85
2019-03-05T02:38:23.600Z,5.79
2019-03-05T02:41:30.481Z,5.77
2019-03-05T02:44:23.080Z,5.74
2019-03-05T02:47:33.702Z,5.71
2019-03-05T02:50:51.504Z,5.68
2019-03-05T02:53:48.380Z,5.44
2019-03-05T02:56:46.246Z,5.32
2019-03-05T02:59:12.211Z,5.34
2019-03-05T03:02:16.619Z,5.36
2019-03-05T03:04:46.316Z,5.36
2019-03-05T03:07:13.112Z,5.44
2019-03-05T03:10:09.598Z,5.49
2019-03-05T03:12:36.796Z,5.49
2019-03-05T03:15:06.142Z,5.54
2019-03-05T03:17:32.837Z,5.59
2019-03-05T03:19:59.501Z,5.61
2019-03-05T03:22:26.297Z,5.61
2019-03-05T03:24:52.972Z,5.69
2019-03-05T03:27:19.816Z,5.70
2019-03-05T03:29:46.454Z,5.68
2019-03-05T03:32:13.211Z,5.70
2019-03-05T03:34:40.041Z,5.66
2019-03-05T03:37:06.762Z,5.65
2019-03-05T03:39:33.458Z,5.64
2019-03-05T03:42:00.146Z,5.63
2019-03-05T03:44:26.933Z,5.62
2019-03-05T03:46:54.004Z,5.60
2019-03-05T03:49:20.727Z,5.57
2019-03-05T03:51:47.382Z,5.59
2019-03-05T03:54:15.641Z,5.55
2019-03-05T03:56:42.327Z,5.54
2019-03-05T03:59:09.000Z,5.55
2019-03-05T04:01:35.798Z,5.54
2019-03-05T04:04:02.583Z,5.54
2019-03-05T04:06:29.336Z,5.54
2019-03-05T04:08:56.142Z,5.54
2019-03-05T04:11:22.934Z,5.55
2019-03-05T04:13:49.622Z,5.52
2019-03-05T04:16:16.401Z,5.49
2019-03-05T04:18:43.127Z,5.48
2019-03-05T04:21:09.815Z,5.47
2019-03-05T04:23:37.616Z,5.43
2019-03-05T04:26:04.475Z,5.46
2019-03-05T04:28:31.434Z,5.44
2019-03-05T04:30:58.085Z,5.44
2019-03-05T04:33:24.762Z,5.47
2019-03-05T04:35:51.449Z,5.47
2019-03-05T04:38:18.125Z,5.53
2019-03-05T04:40:49.397Z,5.51
2019-03-05T04:43:23.787Z,5.48
2019-03-05T04:46:20.331Z,5.53
2019-03-05T04:49:11.019Z,5.52
2019-03-05T04:51:55.139Z,5.54
2019-03-05T04:54:35.836Z,5.52
2019-03-05T04:57:04.694Z,5.53
2019-03-05T04:59:31.377Z,5.51
2019-03-05T05:01:58.159Z,5.51
2019-03-05T05:04:25.022Z,5.50
2019-03-05T05:06:51.742Z,5.52
2019-03-05T05:09:18.429Z,5.49
2019-03-05T05:11:45.147Z,5.37
2019-03-05T05:14:12.192Z,5.30
2019-03-05T05:16:38.865Z,5.20
2019-03-05T05:19:05.591Z,5.23
2019-03-05T05:21:32.246Z,5.25
2019-03-05T05:23:59.024Z,5.14
2019-03-05T05:26:25.813Z,5.08
2019-03-05T05:28:52.505Z,5.02
2019-03-05T05:31:19.297Z,5.03
2019-03-05T05:33:46.125Z,5.07
2019-03-05T05:36:12.790Z,4.95
2019-03-05T05:38:39.496Z,4.83
2019-03-05T05:41:06.161Z,4.76
2019-03-05T05:43:32.951Z,4.73
2019-03-05T05:45:59.733Z,4.70
2019-03-05T05:48:26.522Z,4.79
2019-03-05T05:50:53.219Z,4.79
2019-03-05T05:53:19.916Z,4.81
2019-03-05T05:55:46.933Z,4.85
2019-03-05T05:58:13.657Z,4.86
2019-03-05T06:00:43.114Z,4.85
2019-03-05T06:03:09.982Z,4.94
2019-03-05T06:05:36.763Z,5.00
2019-03-05T06:08:03.573Z,5.00
2019-03-05T06:10:30.235Z,5.05
2019-03-05T06:12:56.902Z,5.09
2019-03-05T06:15:23.701Z,5.08
2019-03-05T06:17:50.385Z,5.10
2019-03-05T06:20:17.172Z,5.04
2019-03-05T06:22:43.984Z,5.04
2019-03-05T06:25:10.868Z,5.04
2019-03-05T06:27:37.643Z,5.06
2019-03-05T06:30:05.719Z,5.06
2019-03-05T06:32:32.480Z,5.09
2019-03-05T06:34:59.153Z,5.12
2019-03-05T06:37:25.861Z,5.11
2019-03-05T06:39:52.530Z,5.17
2019-03-05T06:42:19.529Z,5.19
2019-03-05T06:44:47.295Z,5.19
2019-03-05T06:47:14.073Z,5.21
2019-03-05T06:49:40.908Z,5.24
2019-03-05T06:52:07.577Z,5.28
2019-03-05T06:54:34.364Z,5.26
2019-03-05T06:57:01.180Z,5.28
2019-03-05T06:59:27.833Z,5.25
2019-03-05T07:01:54.493Z,5.31
2019-03-05T07:04:21.454Z,5.30
2019-03-05T07:06:52.424Z,5.34
2019-03-05T07:09:45.929Z,5.38
2019-03-05T07:12:17.325Z,5.34
2019-03-05T07:15:08.498Z,5.34
2019-03-05T07:17:42.290Z,5.37
2019-03-05T07:20:51.347Z,5.39
2019-03-05T07:23:27.350Z,5.39
2019-03-05T07:25:54.011Z,5.41
2019-03-05T07:28:21.010Z,5.44
2019-03-05T07:30:47.807Z,5.42
2019-03-05T07:33:14.601Z,5.41
2019-03-05T07:35:41.413Z,5.42
2019-03-05T07:38:08.125Z,5.43
2019-03-05T07:40:34.794Z,5.47
2019-03-05T07:43:01.603Z,5.46
2019-03-05T07:45:28.381Z,5.50
2019-03-05T07:47:55.170Z,5.54
2019-03-05T07:50:22.070Z,5.54
2019-03-05T07:52:48.789Z,5.51
2019-03-05T07:55:16.800Z,5.53
2019-03-05T07:57:44.682Z,5.59
2019-03-05T08:00:14.609Z,5.68
2019-03-05T08:02:41.383Z,5.73
2019-03-05T08:05:10.202Z,5.77
2019-03-05T08:07:37.200Z,5.76
2019-03-05T08:10:12.214Z,5.79
2019-03-05T08:13:26.354Z,5.82
2019-03-05T08:16:01.970Z,5.83
2019-03-05T08:18:22.653Z,5.93
2019-03-05T08:20:49.410Z,6.06
2019-03-05T08:23:16.197Z,6.08
2019-03-05T08:25:42.987Z,6.15
2019-03-05T08:28:10.108Z,6.26
2019-03-05T08:30:38.254Z,6.22
2019-03-05T08:33:05.050Z,6.08
2019-03-05T08:35:31.828Z,6.14
2019-03-05T08:37:58.514Z,6.18
2019-03-05T08:40:25.311Z,6.16
2019-03-05T08:42:52.012Z,6.14
2019-03-05T08:45:28.724Z,6.10
2019-03-05T08:47:47.709Z,6.12
2019-03-05T08:50:14.469Z,6.07
2019-03-05T08:52:41.177Z,6.10
2019-03-05T08:55:08.342Z,6.07
2019-03-05T08:57:35.072Z,6.08
2019-03-05T09:00:02.026Z,6.13
2019-03-05T09:02:29.729Z,6.16
2019-03-05T09:04:56.412Z,6.14
2019-03-05T09:07:23.204Z,6.17
2019-03-05T09:09:50.149Z,6.16
2019-03-05T09:12:16.946Z,6.15
2019-03-05T09:14:45.120Z,6.15
2019-03-05T09:17:12.215Z,6.09
2019-03-05T09:19:38.917Z,6.17
2019-03-05T09:22:05.726Z,6.14
2019-03-05T09:24:32.455Z,6.14
2019-03-05T09:26:59.955Z,6.07
2019-03-05T09:29:26.639Z,6.02
2019-03-05T09:31:53.334Z,6.02
2019-03-05T09:34:20.023Z,6.06
2019-03-05T09:36:50.965Z,6.05
2019-03-05T09:39:15.485Z,6.04
2019-03-05T09:41:42.790Z,5.82
2019-03-05T09:44:09.453Z,5.61
2019-03-05T09:46:36.140Z,5.55
2019-03-05T09:49:02.956Z,5.34
2019-03-05T09:51:29.646Z,5.35
2019-03-05T09:53:56.423Z,5.36
2019-03-05T09:56:23.218Z,5.32
2019-03-05T09:58:49.894Z,5.32
2019-03-05T10:01:16.797Z,5.43
2019-03-05T10:03:43.520Z,5.39
2019-03-05T10:06:10.373Z,5.34
2019-03-05T10:08:37.186Z,5.38
2019-03-05T10:11:05.230Z,5.45
2019-03-05T10:13:32.021Z,5.48
2019-03-05T10:15:58.837Z,5.41
2019-03-05T10:18:25.613Z,5.34
2019-03-05T10:20:52.495Z,5.27
2019-03-05T10:23:19.399Z,5.38
2019-03-05T10:25:46.078Z,5.34
2019-03-05T10:28:13.874Z,5.41
2019-03-05T10:30:41.461Z,5.27
2019-03-05T10:33:08.871Z,5.37
2019-03-05T10:35:35.670Z,5.45
2019-03-05T10:38:05.027Z,5.64
2019-03-05T10:40:33.588Z,5.76
2019-03-05T10:43:08.429Z,5.80
2019-03-05T10:45:32.507Z,5.77
2019-03-05T10:47:59.281Z,5.69
2019-03-05T10:50:26.667Z,5.59
2019-03-05T10:52:53.677Z,5.46
2019-03-05T10:55:26.213Z,5.32
2019-03-05T10:57:49.444Z,5.23
2019-03-05T11:00:22.900Z,5.07
2019-03-05T11:02:50.264Z,5.14
2019-03-05T11:05:17.040Z,4.93
2019-03-05T11:07:43.949Z,5.09
2019-03-05T11:10:11.114Z,4.86
2019-03-05T11:12:38.778Z,4.97
2019-03-05T11:15:08.957Z,4.93
2019-03-05T11:17:36.095Z,4.98
2019-03-05T11:20:05.026Z,5.01
2019-03-05T11:22:33.142Z,5.11
2019-03-05T11:24:59.945Z,5.29
2019-03-05T11:27:26.709Z,5.19
2019-03-05T11:29:53.387Z,5.26
2019-03-05T11:32:20.182Z,5.41
2019-03-05T11:34:46.953Z,5.36
2019-03-05T11:37:13.718Z,5.45
2019-03-05T11:39:40.530Z,5.52
2019-03-05T11:42:07.514Z,5.55
2019-03-05T11:44:34.758Z,5.57
2019-03-05T11:47:04.185Z,5.48
2019-03-05T11:49:31.258Z,5.50
2019-03-05T11:51:57.964Z,5.49
2019-03-05T11:54:24.726Z,5.43
2019-03-05T11:56:52.520Z,5.52
2019-03-05T11:59:19.198Z,5.58
2019-03-05T12:01:48.316Z,5.63
2019-03-05T12:04:15.506Z,5.70
2019-03-05T12:06:42.289Z,5.73
2019-03-05T12:09:09.386Z,5.71
2019-03-05T12:11:36.474Z,5.79
2019-03-05T12:14:03.264Z,5.86
2019-03-05T12:16:30.063Z,5.95
2019-03-05T12:18:56.759Z,5.88
2019-03-05T12:21:23.651Z,5.85
2019-03-05T12:23:50.999Z,5.86
2019-03-05T12:26:17.650Z,5.90
2019-03-05T12:28:44.617Z,5.82
2019-03-05T12:31:11.522Z,5.77
2019-03-05T12:33:38.548Z,5.84
2019-03-05T12:36:05.613Z,5.60
2019-03-05T12:38:32.394Z,5.53
2019-03-05T12:40:59.177Z,5.39
2019-03-05T12:43:25.961Z,5.38
2019-03-05T12:45:52.730Z,5.08
2019-03-05T12:48:19.403Z,4.91
2019-03-05T12:50:46.181Z,4.84
2019-03-05T12:53:13.046Z,4.74
2019-03-05T12:55:39.991Z,4.74
2019-03-05T12:58:06.770Z,4.72
2019-03-05T13:00:33.802Z,4.76
2019-03-05T13:03:00.673Z,4.81
2019-03-05T13:05:27.461Z,4.85
2019-03-05T13:07:56.391Z,4.91
2019-03-05T13:10:22.974Z,4.95
2019-03-05T13:12:49.733Z,5.00
2019-03-05T13:15:18.964Z,5.00
2019-03-05T13:17:47.233Z,4.99
2019-03-05T13:20:15.711Z,5.09
2019-03-05T13:22:42.682Z,5.16
2019-03-05T13:25:11.030Z,5.29
2019-03-05T13:27:37.823Z,5.40
2019-03-05T13:30:10.262Z,5.48
2019-03-05T13:32:36.810Z,5.44
2019-03-05T13:35:04.442Z,5.47
2019-03-05T13:37:31.353Z,5.51
2019-03-05T13:39:59.114Z,5.62
2019-03-05T13:42:29.120Z,5.76
2019-03-05T13:44:57.197Z,5.71
2019-03-05T13:47:23.502Z,5.82
2019-03-05T13:50:24.194Z,5.88
2019-03-05T13:53:22.953Z,5.87
2019-03-05T13:56:18.359Z,6.02
2019-03-05T13:59:09.773Z,6.16
2019-03-05T14:01:36.544Z,6.36
2019-03-05T14:04:07.134Z,6.56
2019-03-05T14:07:15.251Z,6.46
2019-03-05T14:09:41.221Z,6.75
2019-03-05T14:12:07.991Z,6.80
2019-03-05T14:14:34.701Z,6.78
2019-03-05T14:17:12.468Z,6.53
2019-03-05T14:19:39.294Z,6.05
2019-03-05T14:22:06.262Z,6.73
2019-03-05T14:24:34.415Z,6.71
2019-03-05T14:27:01.210Z,6.96
2019-03-05T14:29:29.343Z,7.17
2019-03-05T14:31:56.204Z,8.05
2019-03-05T14:34:23.066Z,7.68
2019-03-05T14:36:49.878Z,7.75
2019-03-05T14:39:25.019Z,7.45
2019-03-05T14:41:52.249Z,7.31
2019-03-05T14:44:19.098Z,7.48
2019-03-05T14:46:46.938Z,7.88
2019-03-05T14:49:13.801Z,7.65
2019-03-05T14:51:40.538Z,7.77
2019-03-05T14:54:07.343Z,8.06
2019-03-05T14:56:34.012Z,7.80
2019-03-05T14:59:00.775Z,7.82
2019-03-05T15:01:27.842Z,7.79
2019-03-05T15:03:54.598Z,7.70
2019-03-05T15:06:21.438Z,7.46
2019-03-05T15:08:48.280Z,7.51
2019-03-05T15:11:14.930Z,7.33
2019-03-05T15:13:41.612Z,7.30
2019-03-05T15:16:08.290Z,7.39
2019-03-05T15:18:35.624Z,7.32
2019-03-05T15:21:02.346Z,7.20
2019-03-05T15:23:29.249Z,7.31
2019-03-05T15:25:55.963Z,7.28
2019-03-05T15:28:22.761Z,7.21
2019-03-05T15:30:49.465Z,7.28
2019-03-05T15:33:16.186Z,7.75
2019-03-05T15:35:43.008Z,7.58
2019-03-05T15:38:09.839Z,7.39
2019-03-05T15:40:36.657Z,7.30
2019-03-05T15:43:03.455Z,7.27
2019-03-05T15:45:30.116Z,7.22
2019-03-05T15:47:56.951Z,7.27
2019-03-05T15:50:23.823Z,7.23
2019-03-05T15:52:50.658Z,7.31
2019-03-05T15:55:17.518Z,7.29
2019-03-05T15:57:44.527Z,7.32
2019-03-05T16:00:14.582Z,7.29
2019-03-05T16:02:41.568Z,7.34
2019-03-05T16:05:12.193Z,7.44
2019-03-05T16:07:37.462Z,7.50
2019-03-05T16:10:04.528Z,7.39
2019-03-05T16:12:31.516Z,7.40
2019-03-05T16:14:58.200Z,7.29
2019-03-05T16:17:28.224Z,7.33
2019-03-05T16:19:53.618Z,7.38
2019-03-05T16:22:20.342Z,7.26
2019-03-05T16:24:47.424Z,7.19
2019-03-05T16:27:42.348Z,7.26
2019-03-05T16:30:40.022Z,7.22
2019-03-05T16:33:23.856Z,7.12
2019-03-05T16:36:16.105Z,7.14
2019-03-05T16:38:55.137Z,7.25
2019-03-05T16:41:44.354Z,7.24
2019-03-05T16:44:32.399Z,7.17
2019-03-05T16:47:17.583Z,7.10
2019-03-05T16:58:19.799Z,6.80
2019-03-05T17:21:30.687Z,6.45
2019-03-05T17:29:01.908Z,6.28
2019-03-05T17:43:33.623Z,6.16
2019-03-05T17:57:57.259Z,6.02
2019-03-05T18:00:31.564Z,5.98
2019-03-05T18:02:58.667Z,6.00
2019-03-05T18:05:25.425Z,5.98
2019-03-05T18:07:52.194Z,6.04
2019-03-05T18:10:19.257Z,5.99
2019-03-05T18:12:46.238Z,6.04
2019-03-05T18:15:13.475Z,6.17
2019-03-05T18:17:40.330Z,6.03
2019-03-05T18:20:08.954Z,5.99
2019-03-05T18:22:35.746Z,5.86
2019-03-05T18:25:03.867Z,5.77
2019-03-05T18:27:31.162Z,5.73
2019-03-05T18:29:57.930Z,5.73
2019-03-05T18:32:25.323Z,5.80
2019-03-05T18:34:52.047Z,5.66
2019-03-05T18:37:19.422Z,5.69
2019-03-05T18:39:48.062Z,5.66
2019-03-05T18:42:15.979Z,5.60
2019-03-05T18:44:42.837Z,5.46
2019-03-05T18:47:09.530Z,5.41
2019-03-05T18:49:36.226Z,5.36
2019-03-05T18:52:03.382Z,5.32
2019-03-05T18:54:30.043Z,5.37
2019-03-05T18:56:56.947Z,5.30
2019-03-05T18:59:23.634Z,5.17
2019-03-05T19:01:50.428Z,5.10
2019-03-05T19:04:17.149Z,5.02
2019-03-05T19:06:44.229Z,5.14
2019-03-05T19:09:12.207Z,5.10
2019-03-05T19:11:40.253Z,5.07
2019-03-05T19:14:07.408Z,4.95
2019-03-05T19:16:34.293Z,4.98
2019-03-05T19:19:01.318Z,5.00
2019-03-05T19:21:29.246Z,4.99
2019-03-05T19:23:56.121Z,4.94
2019-03-05T19:26:23.585Z,4.90
2019-03-05T19:28:50.386Z,4.89
2019-03-05T19:31:17.335Z,4.86
2019-03-05T19:33:44.055Z,4.93
2019-03-05T19:36:10.867Z,4.86
2019-03-05T19:38:37.552Z,4.92
2019-03-05T19:41:07.565Z,5.05
2019-03-05T19:43:34.437Z,5.07
2019-03-05T19:46:01.228Z,5.07
2019-03-05T19:48:28.127Z,5.05
2019-03-05T19:50:54.909Z,5.03
2019-03-05T19:53:21.580Z,4.97
2019-03-05T19:55:48.373Z,4.94
2019-03-05T19:58:15.221Z,5.01
2019-03-05T20:01:00.008Z,5.02
2019-03-05T20:03:27.034Z,4.92
2019-03-05T20:05:54.395Z,4.90
2019-03-05T20:08:21.188Z,4.95
2019-03-05T20:10:48.165Z,4.92
2019-03-05T20:13:15.275Z,4.82
2019-03-05T20:15:42.188Z,4.85
2019-03-05T20:18:09.191Z,4.90
2019-03-05T20:20:35.963Z,4.88
2019-03-05T20:23:02.834Z,4.78
2019-03-05T20:25:29.996Z,4.86
2019-03-05T20:27:56.912Z,4.79
2019-03-05T20:30:23.891Z,4.84
2019-03-05T20:32:50.870Z,4.84
2019-03-05T20:35:17.741Z,4.89
2019-03-05T20:37:45.069Z,4.79
2019-03-05T20:40:13.766Z,4.78
2019-03-05T20:42:41.081Z,4.73
2019-03-05T20:45:11.249Z,4.77
2019-03-05T20:47:38.058Z,4.90
2019-03-05T20:50:05.350Z,4.93
2019-03-05T20:52:33.552Z,4.94
2019-03-05T20:55:01.810Z,5.01
2019-03-05T20:57:29.020Z,4.99
2019-03-05T20:59:55.705Z,4.94
2019-03-05T21:02:22.513Z,4.88
2019-03-05T21:04:49.332Z,4.88
2019-03-05T21:07:16.517Z,4.91
2019-03-05T21:09:43.605Z,4.87
2019-03-05T21:12:10.397Z,4.83
2019-03-05T21:14:37.161Z,4.85
2019-03-05T21:17:03.953Z,4.80
2019-03-05T21:19:30.727Z,4.81
2019-03-05T21:21:57.613Z,4.74
2019-03-05T21:24:24.500Z,4.64
2019-03-05T21:26:51.347Z,4.68
2019-03-05T21:29:18.350Z,4.68
2019-03-05T21:31:45.601Z,4.69
2019-03-05T21:34:12.782Z,4.63
2019-03-05T21:36:39.828Z,4.61
2019-03-05T21:39:12.338Z,4.59
2019-03-05T21:41:39.430Z,4.47
2019-03-05T21:44:06.146Z,4.49
2019-03-05T21:46:32.817Z,4.43
2019-03-05T21:48:59.594Z,4.44
2019-03-05T21:51:26.570Z,4.40
2019-03-05T21:53:53.407Z,4.36
2019-03-05T21:56:20.205Z,4.42
2019-03-05T21:58:47.050Z,4.32
2019-03-05T22:01:13.834Z,4.22
2019-03-05T22:03:41.723Z,4.28
2019-03-05T22:06:08.503Z,4.19
2019-03-05T22:08:35.398Z,4.10
2019-03-05T22:11:02.814Z,4.04
2019-03-05T22:13:29.710Z,4.15
2019-03-05T22:15:56.474Z,4.08
2019-03-05T22:18:23.309Z,4.10
2019-03-05T22:20:50.269Z,4.12
2019-03-05T22:23:17.110Z,4.14
2019-03-05T22:25:43.810Z,4.18
2019-03-05T22:28:10.474Z,4.20
2019-03-05T22:30:37.675Z,4.23
2019-03-05T22:33:04.863Z,4.11
2019-03-05T22:35:32.462Z,4.20
2019-03-05T22:37:59.364Z,4.22
2019-03-05T22:40:26.281Z,4.19
2019-03-05T22:42:53.133Z,4.20
2019-03-05T22:45:20.959Z,4.18
2019-03-05T22:47:49.635Z,4.16
2019-03-05T22:50:16.717Z,4.16
2019-03-05T22:52:43.605Z,4.20
2019-03-05T22:55:10.816Z,4.07
2019-03-05T22:57:37.734Z,4.07
2019-03-05T23:00:09.135Z,4.11
2019-03-05T23:02:38.123Z,4.15
2019-03-05T23:05:07.489Z,4.13
2019-03-05T23:07:35.087Z,4.12
2019-03-05T23:10:02.049Z,4.10
2019-03-05T23:12:30.645Z,4.03
2019-03-05T23:14:58.765Z,4.14
2019-03-05T23:17:25.699Z,4.11
2019-03-05T23:19:52.601Z,4.09
2019-03-05T23:22:19.528Z,4.16
2019-03-05T23:24:46.412Z,4.04
2019-03-05T23:27:13.412Z,4.16
2019-03-05T23:29:43.287Z,4.02
2019-03-05T23:32:10.524Z,4.03
2019-03-05T23:34:38.181Z,4.03
2019-03-05T23:37:05.171Z,3.97
2019-03-05T23:39:32.138Z,3.93
2019-03-05T23:41:59.355Z,3.98
2019-03-05T23:44:26.304Z,3.88
2019-03-05T23:46:53.432Z,3.80
2019-03-05T23:49:20.229Z,3.77
2019-03-05T23:51:47.501Z,3.75
2019-03-05T23:54:14.181Z,3.80
2019-03-05T23:56:41.062Z,3.73
2019-03-05T23:59:07.733Z,3.69
